sensor_id;sensor_type;location;lat;lon;timestamp;temperature;humidity
11597;DHT22;5854;48.072;16.286;2022-12-07T00:01:47;5.10;72.90
11597;DHT22;5854;48.072;16.286;2022-12-07T00:04:17;5.10;70.90
11597;DHT22;5854;48.072;16.286;2022-12-07T00:06:45;5.10;73.90
11597;DHT22;5854;48.072;16.286;2022-12-07T00:09:15;5.00;69.80
11597;DHT22;5854;48.072;16.286;2022-12-07T00:11:43;5.10;73.40
11597;DHT22;5854;48.072;16.286;2022-12-07T00:14:12;5.10;71.80
11597;DHT22;5854;48.072;16.286;2022-12-07T00:16:41;5.10;75.40
11597;DHT22;5854;48.072;16.286;2022-12-07T00:19:10;5.10;70.90
11597;DHT22;5854;48.072;16.286;2022-12-07T00:21:38;5.10;75.10
11597;DHT22;5854;48.072;16.286;2022-12-07T00:24:05;5.10;73.80
11597;DHT22;5854;48.072;16.286;2022-12-07T00:26:35;5.10;73.30
11597;DHT22;5854;48.072;16.286;2022-12-07T00:29:05;5.20;72.10
11597;DHT22;5854;48.072;16.286;2022-12-07T00:31:34;5.10;68.80
11597;DHT22;5854;48.072;16.286;2022-12-07T00:34:04;5.20;72.90
11597;DHT22;5854;48.072;16.286;2022-12-07T00:36:33;5.20;70.10
11597;DHT22;5854;48.072;16.286;2022-12-07T00:39:00;5.10;73.70
11597;DHT22;5854;48.072;16.286;2022-12-07T00:41:28;5.20;71.70
11597;DHT22;5854;48.072;16.286;2022-12-07T00:43:57;5.20;75.10
11597;DHT22;5854;48.072;16.286;2022-12-07T00:46:24;5.20;73.50
11597;DHT22;5854;48.072;16.286;2022-12-07T00:48:52;5.20;74.30
11597;DHT22;5854;48.072;16.286;2022-12-07T00:51:22;5.10;71.80
11597;DHT22;5854;48.072;16.286;2022-12-07T00:53:52;5.20;73.90
11597;DHT22;5854;48.072;16.286;2022-12-07T00:56:22;5.20;75.70
11597;DHT22;5854;48.072;16.286;2022-12-07T00:58:52;5.20;76.00
11597;DHT22;5854;48.072;16.286;2022-12-07T01:01:19;5.10;74.60
11597;DHT22;5854;48.072;16.286;2022-12-07T01:03:46;5.10;74.10
11597;DHT22;5854;48.072;16.286;2022-12-07T01:06:15;5.10;75.90
11597;DHT22;5854;48.072;16.286;2022-12-07T01:08:42;5.10;77.00
11597;DHT22;5854;48.072;16.286;2022-12-07T01:11:13;5.10;73.50
11597;DHT22;5854;48.072;16.286;2022-12-07T01:13:41;5.10;73.10
11597;DHT22;5854;48.072;16.286;2022-12-07T01:16:10;5.10;74.90
11597;DHT22;5854;48.072;16.286;2022-12-07T01:18:39;5.10;73.80
11597;DHT22;5854;48.072;16.286;2022-12-07T01:21:09;5.10;75.40
11597;DHT22;5854;48.072;16.286;2022-12-07T01:23:37;5.10;76.10
11597;DHT22;5854;48.072;16.286;2022-12-07T01:26:07;5.10;76.30
11597;DHT22;5854;48.072;16.286;2022-12-07T01:28:37;5.10;76.00
11597;DHT22;5854;48.072;16.286;2022-12-07T01:31:07;5.10;76.70
11597;DHT22;5854;48.072;16.286;2022-12-07T01:33:36;5.10;76.20
11597;DHT22;5854;48.072;16.286;2022-12-07T01:36:05;5.10;75.80
11597;DHT22;5854;48.072;16.286;2022-12-07T01:38:33;5.10;76.90
11597;DHT22;5854;48.072;16.286;2022-12-07T01:41:02;5.10;77.10
11597;DHT22;5854;48.072;16.286;2022-12-07T01:43:30;5.10;76.70
11597;DHT22;5854;48.072;16.286;2022-12-07T01:46:00;5.10;77.40
11597;DHT22;5854;48.072;16.286;2022-12-07T01:48:30;5.10;78.10
11597;DHT22;5854;48.072;16.286;2022-12-07T01:51:02;5.00;77.40
11597;DHT22;5854;48.072;16.286;2022-12-07T01:53:32;5.00;77.60
11597;DHT22;5854;48.072;16.286;2022-12-07T01:56:03;5.00;77.00
11597;DHT22;5854;48.072;16.286;2022-12-07T01:58:30;5.00;75.90
11597;DHT22;5854;48.072;16.286;2022-12-07T02:00:58;5.00;75.80
11597;DHT22;5854;48.072;16.286;2022-12-07T02:03:31;5.00;76.80
11597;DHT22;5854;48.072;16.286;2022-12-07T02:06:00;5.00;78.00
11597;DHT22;5854;48.072;16.286;2022-12-07T02:08:27;5.00;75.00
11597;DHT22;5854;48.072;16.286;2022-12-07T02:10:54;5.00;77.90
11597;DHT22;5854;48.072;16.286;2022-12-07T02:13:24;5.00;77.30
11597;DHT22;5854;48.072;16.286;2022-12-07T02:16:25;5.00;77.10
11597;DHT22;5854;48.072;16.286;2022-12-07T02:19:11;4.90;77.50
11597;DHT22;5854;48.072;16.286;2022-12-07T02:22:18;5.00;78.60
11597;DHT22;5854;48.072;16.286;2022-12-07T02:24:58;5.00;78.40
11597;DHT22;5854;48.072;16.286;2022-12-07T02:27:40;4.90;78.00
11597;DHT22;5854;48.072;16.286;2022-12-07T02:30:12;4.90;77.80
11597;DHT22;5854;48.072;16.286;2022-12-07T02:32:50;4.90;77.50
11597;DHT22;5854;48.072;16.286;2022-12-07T02:35:26;5.00;78.10
11597;DHT22;5854;48.072;16.286;2022-12-07T02:38:01;4.90;77.70
11597;DHT22;5854;48.072;16.286;2022-12-07T02:40:33;4.90;79.10
11597;DHT22;5854;48.072;16.286;2022-12-07T02:43:05;4.90;78.80
11597;DHT22;5854;48.072;16.286;2022-12-07T02:45:38;4.90;78.70
11597;DHT22;5854;48.072;16.286;2022-12-07T02:48:08;4.90;79.20
11597;DHT22;5854;48.072;16.286;2022-12-07T02:50:36;4.90;77.90
11597;DHT22;5854;48.072;16.286;2022-12-07T02:53:03;4.90;78.80
11597;DHT22;5854;48.072;16.286;2022-12-07T02:55:34;4.90;79.40
11597;DHT22;5854;48.072;16.286;2022-12-07T02:58:15;4.90;76.90
11597;DHT22;5854;48.072;16.286;2022-12-07T03:01:02;4.90;78.40
11597;DHT22;5854;48.072;16.286;2022-12-07T03:03:35;4.90;78.40
11597;DHT22;5854;48.072;16.286;2022-12-07T03:06:12;4.90;77.70
11597;DHT22;5854;48.072;16.286;2022-12-07T03:08:50;4.90;78.10
11597;DHT22;5854;48.072;16.286;2022-12-07T03:11:24;4.90;79.50
11597;DHT22;5854;48.072;16.286;2022-12-07T03:13:59;4.90;78.90
11597;DHT22;5854;48.072;16.286;2022-12-07T03:16:32;4.90;78.50
11597;DHT22;5854;48.072;16.286;2022-12-07T03:19:05;4.90;78.40
11597;DHT22;5854;48.072;16.286;2022-12-07T03:21:38;4.90;79.50
11597;DHT22;5854;48.072;16.286;2022-12-07T03:24:09;4.90;80.10
11597;DHT22;5854;48.072;16.286;2022-12-07T03:26:41;4.90;79.00
11597;DHT22;5854;48.072;16.286;2022-12-07T03:29:13;4.90;79.10
11597;DHT22;5854;48.072;16.286;2022-12-07T03:31:47;4.90;79.40
11597;DHT22;5854;48.072;16.286;2022-12-07T03:34:21;4.90;79.40
11597;DHT22;5854;48.072;16.286;2022-12-07T03:36:56;4.80;78.40
11597;DHT22;5854;48.072;16.286;2022-12-07T03:39:32;4.90;79.40
11597;DHT22;5854;48.072;16.286;2022-12-07T03:42:05;4.80;78.90
11597;DHT22;5854;48.072;16.286;2022-12-07T03:44:34;4.80;79.90
11597;DHT22;5854;48.072;16.286;2022-12-07T03:47:05;4.80;79.40
11597;DHT22;5854;48.072;16.286;2022-12-07T03:49:43;4.80;78.90
11597;DHT22;5854;48.072;16.286;2022-12-07T03:52:17;4.80;78.70
11597;DHT22;5854;48.072;16.286;2022-12-07T03:54:49;4.90;80.20
11597;DHT22;5854;48.072;16.286;2022-12-07T03:57:19;4.80;80.20
11597;DHT22;5854;48.072;16.286;2022-12-07T03:59:47;4.90;80.50
11597;DHT22;5854;48.072;16.286;2022-12-07T04:02:16;4.80;78.70
11597;DHT22;5854;48.072;16.286;2022-12-07T04:04:43;4.80;80.40
11597;DHT22;5854;48.072;16.286;2022-12-07T04:07:10;4.80;79.20
11597;DHT22;5854;48.072;16.286;2022-12-07T04:09:38;4.80;80.00
11597;DHT22;5854;48.072;16.286;2022-12-07T04:12:05;4.80;79.10
11597;DHT22;5854;48.072;16.286;2022-12-07T04:14:33;4.80;79.60
11597;DHT22;5854;48.072;16.286;2022-12-07T04:17:00;4.80;79.50
11597;DHT22;5854;48.072;16.286;2022-12-07T04:19:30;4.90;80.60
11597;DHT22;5854;48.072;16.286;2022-12-07T04:21:59;4.80;77.50
11597;DHT22;5854;48.072;16.286;2022-12-07T04:24:29;4.90;79.60
11597;DHT22;5854;48.072;16.286;2022-12-07T04:26:57;4.90;80.00
11597;DHT22;5854;48.072;16.286;2022-12-07T04:29:26;4.80;79.90
11597;DHT22;5854;48.072;16.286;2022-12-07T04:31:54;4.80;79.40
11597;DHT22;5854;48.072;16.286;2022-12-07T04:34:21;4.80;80.00
11597;DHT22;5854;48.072;16.286;2022-12-07T04:36:50;4.80;78.20
11597;DHT22;5854;48.072;16.286;2022-12-07T04:39:20;4.80;79.70
11597;DHT22;5854;48.072;16.286;2022-12-07T04:41:49;4.80;77.60
11597;DHT22;5854;48.072;16.286;2022-12-07T04:44:16;4.80;77.70
11597;DHT22;5854;48.072;16.286;2022-12-07T04:46:44;4.80;79.30
11597;DHT22;5854;48.072;16.286;2022-12-07T04:49:13;4.80;78.20
11597;DHT22;5854;48.072;16.286;2022-12-07T04:51:42;4.80;78.40
11597;DHT22;5854;48.072;16.286;2022-12-07T04:54:10;4.80;78.50
11597;DHT22;5854;48.072;16.286;2022-12-07T04:56:38;4.80;77.80
11597;DHT22;5854;48.072;16.286;2022-12-07T04:59:06;4.80;79.40
11597;DHT22;5854;48.072;16.286;2022-12-07T05:01:34;4.80;79.00
11597;DHT22;5854;48.072;16.286;2022-12-07T05:04:01;4.80;79.00
11597;DHT22;5854;48.072;16.286;2022-12-07T05:06:28;4.80;79.20
11597;DHT22;5854;48.072;16.286;2022-12-07T05:08:55;4.80;80.20
11597;DHT22;5854;48.072;16.286;2022-12-07T05:11:24;4.80;79.00
11597;DHT22;5854;48.072;16.286;2022-12-07T05:14:15;4.90;79.80
11597;DHT22;5854;48.072;16.286;2022-12-07T05:16:45;4.80;79.60
11597;DHT22;5854;48.072;16.286;2022-12-07T05:19:13;4.80;79.00
11597;DHT22;5854;48.072;16.286;2022-12-07T05:21:43;4.80;79.50
11597;DHT22;5854;48.072;16.286;2022-12-07T05:24:12;4.80;79.20
11597;DHT22;5854;48.072;16.286;2022-12-07T05:26:41;4.80;80.00
11597;DHT22;5854;48.072;16.286;2022-12-07T05:29:11;4.80;79.30
11597;DHT22;5854;48.072;16.286;2022-12-07T05:31:40;4.70;78.40
11597;DHT22;5854;48.072;16.286;2022-12-07T05:34:07;4.70;78.90
11597;DHT22;5854;48.072;16.286;2022-12-07T05:36:34;4.80;80.20
11597;DHT22;5854;48.072;16.286;2022-12-07T05:39:01;4.80;80.30
11597;DHT22;5854;48.072;16.286;2022-12-07T05:41:32;4.70;79.10
11597;DHT22;5854;48.072;16.286;2022-12-07T05:44:18;4.80;79.80
11597;DHT22;5854;48.072;16.286;2022-12-07T05:46:45;4.80;79.40
11597;DHT22;5854;48.072;16.286;2022-12-07T05:49:12;4.80;79.30
11597;DHT22;5854;48.072;16.286;2022-12-07T05:51:39;4.80;79.30
11597;DHT22;5854;48.072;16.286;2022-12-07T05:54:06;4.80;79.60
11597;DHT22;5854;48.072;16.286;2022-12-07T05:56:33;4.80;80.00
11597;DHT22;5854;48.072;16.286;2022-12-07T05:59:00;4.80;80.20
11597;DHT22;5854;48.072;16.286;2022-12-07T06:01:46;4.80;78.90
11597;DHT22;5854;48.072;16.286;2022-12-07T06:04:13;4.70;79.70
11597;DHT22;5854;48.072;16.286;2022-12-07T06:06:40;4.70;79.60
11597;DHT22;5854;48.072;16.286;2022-12-07T06:09:07;4.80;80.00
11597;DHT22;5854;48.072;16.286;2022-12-07T06:11:34;4.80;80.40
11597;DHT22;5854;48.072;16.286;2022-12-07T06:14:19;4.70;78.90
11597;DHT22;5854;48.072;16.286;2022-12-07T06:16:47;4.70;79.30
11597;DHT22;5854;48.072;16.286;2022-12-07T06:19:15;4.70;79.60
11597;DHT22;5854;48.072;16.286;2022-12-07T06:21:42;4.70;78.30
11597;DHT22;5854;48.072;16.286;2022-12-07T06:24:10;4.70;78.70
11597;DHT22;5854;48.072;16.286;2022-12-07T06:26:38;4.70;79.30
11597;DHT22;5854;48.072;16.286;2022-12-07T06:29:06;4.70;79.90
11597;DHT22;5854;48.072;16.286;2022-12-07T06:31:33;4.70;79.60
11597;DHT22;5854;48.072;16.286;2022-12-07T06:34:03;4.70;79.50
11597;DHT22;5854;48.072;16.286;2022-12-07T06:36:37;4.80;85.90
11597;DHT22;5854;48.072;16.286;2022-12-07T06:39:04;5.50;96.40
11597;DHT22;5854;48.072;16.286;2022-12-07T06:41:34;5.70;84.80
11597;DHT22;5854;48.072;16.286;2022-12-07T06:44:02;5.40;74.80
11597;DHT22;5854;48.072;16.286;2022-12-07T06:46:30;5.20;76.70
11597;DHT22;5854;48.072;16.286;2022-12-07T06:48:57;5.00;77.40
11597;DHT22;5854;48.072;16.286;2022-12-07T06:51:26;4.90;77.20
11597;DHT22;5854;48.072;16.286;2022-12-07T06:53:53;4.90;77.40
11597;DHT22;5854;48.072;16.286;2022-12-07T06:56:20;4.90;78.30
11597;DHT22;5854;48.072;16.286;2022-12-07T06:58:48;4.80;77.70
11597;DHT22;5854;48.072;16.286;2022-12-07T07:01:17;4.90;79.00
11597;DHT22;5854;48.072;16.286;2022-12-07T07:03:46;4.80;77.40
11597;DHT22;5854;48.072;16.286;2022-12-07T07:06:14;4.90;78.30
11597;DHT22;5854;48.072;16.286;2022-12-07T07:08:42;4.80;77.80
11597;DHT22;5854;48.072;16.286;2022-12-07T07:11:10;4.90;76.70
11597;DHT22;5854;48.072;16.286;2022-12-07T07:13:37;4.80;75.80
11597;DHT22;5854;48.072;16.286;2022-12-07T07:16:05;4.80;74.10
11597;DHT22;5854;48.072;16.286;2022-12-07T07:18:33;4.80;73.70
11597;DHT22;5854;48.072;16.286;2022-12-07T07:21:00;4.90;79.10
11597;DHT22;5854;48.072;16.286;2022-12-07T07:23:28;4.80;76.30
11597;DHT22;5854;48.072;16.286;2022-12-07T07:25:57;4.80;75.70
11597;DHT22;5854;48.072;16.286;2022-12-07T07:28:24;4.80;77.00
11597;DHT22;5854;48.072;16.286;2022-12-07T07:30:51;4.80;77.00
11597;DHT22;5854;48.072;16.286;2022-12-07T07:33:18;4.90;77.20
11597;DHT22;5854;48.072;16.286;2022-12-07T07:35:45;4.80;74.00
11597;DHT22;5854;48.072;16.286;2022-12-07T07:38:12;4.90;76.70
11597;DHT22;5854;48.072;16.286;2022-12-07T07:40:39;4.90;77.00
11597;DHT22;5854;48.072;16.286;2022-12-07T07:43:07;4.90;76.00
11597;DHT22;5854;48.072;16.286;2022-12-07T07:45:34;4.90;77.30
11597;DHT22;5854;48.072;16.286;2022-12-07T07:48:01;4.90;73.90
11597;DHT22;5854;48.072;16.286;2022-12-07T07:50:28;4.90;75.40
11597;DHT22;5854;48.072;16.286;2022-12-07T07:52:57;5.00;74.70
11597;DHT22;5854;48.072;16.286;2022-12-07T07:55:24;5.00;72.80
11597;DHT22;5854;48.072;16.286;2022-12-07T07:57:51;5.00;74.10
11597;DHT22;5854;48.072;16.286;2022-12-07T08:00:20;5.10;73.20
11597;DHT22;5854;48.072;16.286;2022-12-07T08:02:48;5.10;75.40
11597;DHT22;5854;48.072;16.286;2022-12-07T08:05:15;5.00;72.90
11597;DHT22;5854;48.072;16.286;2022-12-07T08:07:43;5.10;74.60
11597;DHT22;5854;48.072;16.286;2022-12-07T08:10:11;5.10;75.60
11597;DHT22;5854;48.072;16.286;2022-12-07T08:12:41;5.10;72.30
11597;DHT22;5854;48.072;16.286;2022-12-07T08:15:25;5.10;73.10
11597;DHT22;5854;48.072;16.286;2022-12-07T08:17:52;5.10;71.00
11597;DHT22;5854;48.072;16.286;2022-12-07T08:20:20;5.10;72.70
11597;DHT22;5854;48.072;16.286;2022-12-07T08:22:50;5.10;74.00
11597;DHT22;5854;48.072;16.286;2022-12-07T08:25:18;5.10;70.90
11597;DHT22;5854;48.072;16.286;2022-12-07T08:27:45;5.20;73.20
11597;DHT22;5854;48.072;16.286;2022-12-07T08:30:12;5.20;71.00
11597;DHT22;5854;48.072;16.286;2022-12-07T08:32:41;5.20;72.80
11597;DHT22;5854;48.072;16.286;2022-12-07T08:35:08;5.20;69.50
11597;DHT22;5854;48.072;16.286;2022-12-07T08:37:36;5.20;68.00
11597;DHT22;5854;48.072;16.286;2022-12-07T08:40:06;5.20;71.10
11597;DHT22;5854;48.072;16.286;2022-12-07T08:42:35;5.20;67.00
11597;DHT22;5854;48.072;16.286;2022-12-07T08:45:06;5.20;69.60
11597;DHT22;5854;48.072;16.286;2022-12-07T08:47:35;5.30;69.60
11597;DHT22;5854;48.072;16.286;2022-12-07T08:50:07;5.30;65.60
11597;DHT22;5854;48.072;16.286;2022-12-07T08:52:35;5.40;70.00
11597;DHT22;5854;48.072;16.286;2022-12-07T08:55:04;5.30;66.10
11597;DHT22;5854;48.072;16.286;2022-12-07T08:57:33;5.40;66.50
11597;DHT22;5854;48.072;16.286;2022-12-07T09:00:02;5.30;67.60
11597;DHT22;5854;48.072;16.286;2022-12-07T09:02:30;5.40;67.70
11597;DHT22;5854;48.072;16.286;2022-12-07T09:04:57;5.40;67.50
11597;DHT22;5854;48.072;16.286;2022-12-07T09:07:26;5.40;67.80
11597;DHT22;5854;48.072;16.286;2022-12-07T09:09:53;5.40;68.30
11597;DHT22;5854;48.072;16.286;2022-12-07T09:12:21;5.40;63.60
11597;DHT22;5854;48.072;16.286;2022-12-07T09:14:48;5.40;63.30
11597;DHT22;5854;48.072;16.286;2022-12-07T09:17:15;5.50;64.50
11597;DHT22;5854;48.072;16.286;2022-12-07T09:19:42;5.50;66.20
11597;DHT22;5854;48.072;16.286;2022-12-07T09:22:09;5.50;60.30
11597;DHT22;5854;48.072;16.286;2022-12-07T09:24:38;5.50;63.70
11597;DHT22;5854;48.072;16.286;2022-12-07T09:27:05;5.50;63.40
11597;DHT22;5854;48.072;16.286;2022-12-07T09:29:32;5.50;70.80
11597;DHT22;5854;48.072;16.286;2022-12-07T09:31:59;5.50;69.30
11597;DHT22;5854;48.072;16.286;2022-12-07T09:34:26;5.40;63.90
11597;DHT22;5854;48.072;16.286;2022-12-07T09:36:53;5.50;64.90
11597;DHT22;5854;48.072;16.286;2022-12-07T09:39:20;5.50;62.10
11597;DHT22;5854;48.072;16.286;2022-12-07T09:41:49;5.40;60.80
11597;DHT22;5854;48.072;16.286;2022-12-07T09:44:22;5.40;67.50
11597;DHT22;5854;48.072;16.286;2022-12-07T09:46:51;5.40;64.70
11597;DHT22;5854;48.072;16.286;2022-12-07T09:49:20;5.40;66.10
11597;DHT22;5854;48.072;16.286;2022-12-07T09:51:48;5.50;66.60
11597;DHT22;5854;48.072;16.286;2022-12-07T09:54:27;5.60;65.30
11597;DHT22;5854;48.072;16.286;2022-12-07T09:56:56;5.60;64.60
11597;DHT22;5854;48.072;16.286;2022-12-07T09:59:23;5.60;68.50
11597;DHT22;5854;48.072;16.286;2022-12-07T10:01:51;5.60;65.60
11597;DHT22;5854;48.072;16.286;2022-12-07T10:04:20;5.70;66.90
11597;DHT22;5854;48.072;16.286;2022-12-07T10:06:49;5.80;58.90
11597;DHT22;5854;48.072;16.286;2022-12-07T10:09:19;5.90;63.10
11597;DHT22;5854;48.072;16.286;2022-12-07T10:12:04;5.80;58.90
11597;DHT22;5854;48.072;16.286;2022-12-07T10:14:34;5.90;61.40
11597;DHT22;5854;48.072;16.286;2022-12-07T10:17:02;5.90;55.60
11597;DHT22;5854;48.072;16.286;2022-12-07T10:20:18;6.00;52.70
11597;DHT22;5854;48.072;16.286;2022-12-07T10:23:02;6.00;54.40
11597;DHT22;5854;48.072;16.286;2022-12-07T10:25:33;6.10;64.60
11597;DHT22;5854;48.072;16.286;2022-12-07T10:28:13;6.10;53.10
11597;DHT22;5854;48.072;16.286;2022-12-07T10:30:54;6.20;55.10
11597;DHT22;5854;48.072;16.286;2022-12-07T10:33:32;6.20;54.20
11597;DHT22;5854;48.072;16.286;2022-12-07T10:36:15;6.30;56.00
11597;DHT22;5854;48.072;16.286;2022-12-07T10:38:47;6.40;60.70
11597;DHT22;5854;48.072;16.286;2022-12-07T10:41:15;6.50;57.60
11597;DHT22;5854;48.072;16.286;2022-12-07T10:43:52;6.60;55.50
11597;DHT22;5854;48.072;16.286;2022-12-07T10:49:48;6.60;54.00
11597;DHT22;5854;48.072;16.286;2022-12-07T10:52:45;6.70;57.50
11597;DHT22;5854;48.072;16.286;2022-12-07T10:55:30;6.60;61.30
11597;DHT22;5854;48.072;16.286;2022-12-07T10:58:18;6.60;57.50
11597;DHT22;5854;48.072;16.286;2022-12-07T11:01:06;6.60;61.20
11597;DHT22;5854;48.072;16.286;2022-12-07T11:03:47;6.60;62.60
11597;DHT22;5854;48.072;16.286;2022-12-07T11:06:28;6.60;60.70
11597;DHT22;5854;48.072;16.286;2022-12-07T11:09:15;6.60;62.60
11597;DHT22;5854;48.072;16.286;2022-12-07T11:12:02;6.60;63.70
11597;DHT22;5854;48.072;16.286;2022-12-07T11:14:36;6.70;60.30
11597;DHT22;5854;48.072;16.286;2022-12-07T11:17:13;6.60;55.80
11597;DHT22;5854;48.072;16.286;2022-12-07T11:19:50;6.50;50.50
11597;DHT22;5854;48.072;16.286;2022-12-07T11:22:29;6.50;61.40
11597;DHT22;5854;48.072;16.286;2022-12-07T11:25:14;6.40;60.90
11597;DHT22;5854;48.072;16.286;2022-12-07T11:27:52;6.40;57.80
11597;DHT22;5854;48.072;16.286;2022-12-07T11:30:40;6.40;55.10
11597;DHT22;5854;48.072;16.286;2022-12-07T11:33:16;6.20;59.70
11597;DHT22;5854;48.072;16.286;2022-12-07T11:35:57;6.10;62.00
11597;DHT22;5854;48.072;16.286;2022-12-07T11:38:37;6.10;60.30
11597;DHT22;5854;48.072;16.286;2022-12-07T11:41:06;6.00;63.20
11597;DHT22;5854;48.072;16.286;2022-12-07T11:43:54;5.90;60.90
11597;DHT22;5854;48.072;16.286;2022-12-07T11:46:25;5.90;58.40
11597;DHT22;5854;48.072;16.286;2022-12-07T11:49:02;5.80;61.50
11597;DHT22;5854;48.072;16.286;2022-12-07T11:51:36;5.70;63.00
11597;DHT22;5854;48.072;16.286;2022-12-07T11:54:12;5.60;55.10
11597;DHT22;5854;48.072;16.286;2022-12-07T11:56:41;5.60;64.60
11597;DHT22;5854;48.072;16.286;2022-12-07T11:59:13;5.80;63.20
11597;DHT22;5854;48.072;16.286;2022-12-07T12:01:51;5.80;64.50
11597;DHT22;5854;48.072;16.286;2022-12-07T12:25:35;5.60;68.50
11597;DHT22;5854;48.072;16.286;2022-12-07T12:28:27;5.50;62.30
11597;DHT22;5854;48.072;16.286;2022-12-07T12:31:09;5.50;69.10
11597;DHT22;5854;48.072;16.286;2022-12-07T12:33:46;5.60;66.70
11597;DHT22;5854;48.072;16.286;2022-12-07T12:39:20;5.50;59.90
11597;DHT22;5854;48.072;16.286;2022-12-07T12:53:01;5.60;56.30
11597;DHT22;5854;48.072;16.286;2022-12-07T12:56:06;5.50;55.30
11597;DHT22;5854;48.072;16.286;2022-12-07T13:01:36;5.60;62.30
11597;DHT22;5854;48.072;16.286;2022-12-07T13:04:27;5.60;63.50
11597;DHT22;5854;48.072;16.286;2022-12-07T13:07:53;5.60;65.60
11597;DHT22;5854;48.072;16.286;2022-12-07T13:10:36;5.60;64.70
11597;DHT22;5854;48.072;16.286;2022-12-07T13:13:35;5.50;56.20
11597;DHT22;5854;48.072;16.286;2022-12-07T13:16:40;5.50;61.20
11597;DHT22;5854;48.072;16.286;2022-12-07T13:22:49;5.50;60.70
11597;DHT22;5854;48.072;16.286;2022-12-07T13:25:29;5.70;70.50
11597;DHT22;5854;48.072;16.286;2022-12-07T14:40:34;4.80;62.30
11597;DHT22;5854;48.072;16.286;2022-12-07T15:06:25;4.60;72.60
11597;DHT22;5854;48.072;16.286;2022-12-07T15:08:56;4.60;72.00
11597;DHT22;5854;48.072;16.286;2022-12-07T15:19:50;4.30;70.20
11597;DHT22;5854;48.072;16.286;2022-12-07T15:22:19;4.30;65.30
11597;DHT22;5854;48.072;16.286;2022-12-07T15:24:46;4.30;74.20
11597;DHT22;5854;48.072;16.286;2022-12-07T15:27:15;4.30;74.30
11597;DHT22;5854;48.072;16.286;2022-12-07T15:29:48;4.50;74.70
11597;DHT22;5854;48.072;16.286;2022-12-07T15:32:15;4.30;68.20
11597;DHT22;5854;48.072;16.286;2022-12-07T15:34:42;4.30;68.20
11597;DHT22;5854;48.072;16.286;2022-12-07T15:37:09;4.20;70.70
11597;DHT22;5854;48.072;16.286;2022-12-07T15:39:38;4.20;70.30
11597;DHT22;5854;48.072;16.286;2022-12-07T15:42:07;4.20;70.20
11597;DHT22;5854;48.072;16.286;2022-12-07T15:44:34;4.20;65.40
11597;DHT22;5854;48.072;16.286;2022-12-07T15:47:18;4.10;69.50
11597;DHT22;5854;48.072;16.286;2022-12-07T15:54:58;4.30;70.90
11597;DHT22;5854;48.072;16.286;2022-12-07T15:57:28;4.30;70.20
11597;DHT22;5854;48.072;16.286;2022-12-07T15:59:55;4.20;74.50
11597;DHT22;5854;48.072;16.286;2022-12-07T16:02:23;4.00;70.00
11597;DHT22;5854;48.072;16.286;2022-12-07T16:04:53;4.00;72.10
11597;DHT22;5854;48.072;16.286;2022-12-07T16:25:35;3.80;75.20
11597;DHT22;5854;48.072;16.286;2022-12-07T16:28:02;3.80;71.70
11597;DHT22;5854;48.072;16.286;2022-12-07T16:30:29;3.80;73.60
11597;DHT22;5854;48.072;16.286;2022-12-07T16:32:56;3.90;75.40
11597;DHT22;5854;48.072;16.286;2022-12-07T16:35:23;3.80;74.30
11597;DHT22;5854;48.072;16.286;2022-12-07T16:37:50;3.70;78.80
11597;DHT22;5854;48.072;16.286;2022-12-07T16:40:17;3.60;75.30
11597;DHT22;5854;48.072;16.286;2022-12-07T16:42:46;3.70;75.70
11597;DHT22;5854;48.072;16.286;2022-12-07T16:45:13;3.80;75.40
11597;DHT22;5854;48.072;16.286;2022-12-07T16:47:41;3.70;71.80
11597;DHT22;5854;48.072;16.286;2022-12-07T16:50:08;3.70;73.90
11597;DHT22;5854;48.072;16.286;2022-12-07T16:52:36;3.70;73.60
11597;DHT22;5854;48.072;16.286;2022-12-07T16:55:03;3.70;70.50
11597;DHT22;5854;48.072;16.286;2022-12-07T16:57:31;3.50;66.40
11597;DHT22;5854;48.072;16.286;2022-12-07T17:00:00;3.60;73.70
11597;DHT22;5854;48.072;16.286;2022-12-07T17:02:29;3.70;78.40
11597;DHT22;5854;48.072;16.286;2022-12-07T17:04:56;3.60;66.50
11597;DHT22;5854;48.072;16.286;2022-12-07T17:07:24;3.60;71.40
11597;DHT22;5854;48.072;16.286;2022-12-07T17:09:52;3.70;74.00
11597;DHT22;5854;48.072;16.286;2022-12-07T17:12:20;3.80;77.60
11597;DHT22;5854;48.072;16.286;2022-12-07T17:14:47;3.80;75.30
11597;DHT22;5854;48.072;16.286;2022-12-07T17:17:33;3.80;75.60
11597;DHT22;5854;48.072;16.286;2022-12-07T17:20:03;3.70;71.40
11597;DHT22;5854;48.072;16.286;2022-12-07T17:22:32;3.70;74.00
11597;DHT22;5854;48.072;16.286;2022-12-07T17:24:59;3.80;77.50
11597;DHT22;5854;48.072;16.286;2022-12-07T17:27:26;3.80;75.90
11597;DHT22;5854;48.072;16.286;2022-12-07T17:29:53;3.80;76.50
11597;DHT22;5854;48.072;16.286;2022-12-07T17:35:05;3.70;68.90
11597;DHT22;5854;48.072;16.286;2022-12-07T17:37:53;3.70;72.00
11597;DHT22;5854;48.072;16.286;2022-12-07T17:47:59;4.00;74.60
11597;DHT22;5854;48.072;16.286;2022-12-07T18:50:29;3.80;74.10
11597;DHT22;5854;48.072;16.286;2022-12-07T19:03:29;3.60;69.60
11597;DHT22;5854;48.072;16.286;2022-12-07T19:06:05;3.60;72.40
11597;DHT22;5854;48.072;16.286;2022-12-07T19:11:23;3.50;69.30
11597;DHT22;5854;48.072;16.286;2022-12-07T19:14:11;3.50;70.80
11597;DHT22;5854;48.072;16.286;2022-12-07T19:53:02;3.50;74.60
11597;DHT22;5854;48.072;16.286;2022-12-07T19:58:07;3.40;70.60
11597;DHT22;5854;48.072;16.286;2022-12-07T20:00:35;3.50;72.70
11597;DHT22;5854;48.072;16.286;2022-12-07T20:03:07;3.40;67.20
11597;DHT22;5854;48.072;16.286;2022-12-07T20:05:34;3.40;68.30
11597;DHT22;5854;48.072;16.286;2022-12-07T20:13:19;3.40;70.60
11597;DHT22;5854;48.072;16.286;2022-12-07T20:15:57;3.30;66.10
11597;DHT22;5854;48.072;16.286;2022-12-07T20:18:31;3.30;70.80
11597;DHT22;5854;48.072;16.286;2022-12-07T20:23:40;3.40;70.90
11597;DHT22;5854;48.072;16.286;2022-12-07T20:26:10;3.40;74.10
11597;DHT22;5854;48.072;16.286;2022-12-07T20:54:16;3.30;71.40
11597;DHT22;5854;48.072;16.286;2022-12-07T20:56:46;3.30;71.30
11597;DHT22;5854;48.072;16.286;2022-12-07T21:07:08;3.40;75.60
11597;DHT22;5854;48.072;16.286;2022-12-07T21:14:50;3.40;74.80
11597;DHT22;5854;48.072;16.286;2022-12-07T21:17:18;3.40;75.60
11597;DHT22;5854;48.072;16.286;2022-12-07T21:19:46;3.30;75.80
11597;DHT22;5854;48.072;16.286;2022-12-07T21:32:35;2.90;78.90
11597;DHT22;5854;48.072;16.286;2022-12-07T21:35:03;2.80;80.00
11597;DHT22;5854;48.072;16.286;2022-12-07T21:37:31;2.80;80.30
11597;DHT22;5854;48.072;16.286;2022-12-07T21:39:59;2.90;80.70
11597;DHT22;5854;48.072;16.286;2022-12-07T21:42:27;2.80;80.40
11597;DHT22;5854;48.072;16.286;2022-12-07T21:44:54;2.90;81.50
11597;DHT22;5854;48.072;16.286;2022-12-07T21:47:22;2.90;79.60
11597;DHT22;5854;48.072;16.286;2022-12-07T21:49:57;2.90;80.10
11597;DHT22;5854;48.072;16.286;2022-12-07T21:57:37;2.90;78.80
11597;DHT22;5854;48.072;16.286;2022-12-07T22:02:42;3.00;76.80
11597;DHT22;5854;48.072;16.286;2022-12-07T22:05:30;3.10;76.80
11597;DHT22;5854;48.072;16.286;2022-12-07T22:08:24;3.20;75.50
11597;DHT22;5854;48.072;16.286;2022-12-07T22:13:31;3.30;71.60
11597;DHT22;5854;48.072;16.286;2022-12-07T22:16:14;3.40;73.80